KERO2: Robert S. Kerr Lock & Dam & Reservoir (L&D 15)

Data processed at Sun Aug 09 2020 23:31


All information presented herein is the property of the government of the United States of America and may be revised or deleted at any time without prior notice.
Dissemination of this information without the expressed written consent of the Public Affairs Office, Tulsa District U.S. Army Corps of Engineers is strictly prohibited.
These data are gathered electronically and, as presented, have not undergone any form of quality control. These data are not guaranteed to be valid or correct.
Go to home page.
Go to station list.
Go to home page.

Upstream stations:

Downstream station:
Previous Day
Next Day
Current Day
    
SHEF ID:       KERO2     RS Kerr LD15
STATION TYPE:  NAVIGATION LOCK
Navigation Pool:  Bottom =   458.00, Top =   460.00

               PRECIP ELEVATION   STORAGE   TW-ELEV    INFLOW   RELEASE  AIR-TEMP  WIND-DIRWIND-SPEED REL-HUMID SOLAR-RAD   VOLTAGE  BAT-LOAD
                   in        ft     ac-ft        ft       cfs       cfs         F       deg       mph         %      W/m2      volt      volt
              Ccp-Rev   Ccp-Rev   Ccp-Rev   Ccp-Rev  Rev-Regi  Rev-Regi   Ccp-Rev   Ccp-Rev   Ccp-Rev   Ccp-Rev   Ccp-Rev   Ccp-Rev   Ccp-Rev
(US/Central)
08/09 00:00      0.00    460.13    531556    412.52     41921     33120     80.78     19.90      0.48     95.07      0.00     13.39     13.12
08/09 01:00      0.00    460.15    532458    412.49     39873     33450     79.03      5.50      0.82     98.62      0.00     13.39     13.12
08/09 02:00      0.00    460.17    533360    413.00     35602     33800     78.39     64.40      1.00    100.21      0.00     13.39     13.12
08/09 03:00      0.00    460.14    532007    413.12     32502     33600     77.61     12.60      0.78    100.21      0.00     13.41     13.12
08/09 04:00      0.00    460.14    532007    413.24     29322     34000     76.51     23.70      1.17    100.15      0.00     13.39     13.12
08/09 05:00      0.00    460.12    531104    413.35     27169     33600     76.06     22.90      1.44    100.15      0.00     13.39     13.12
08/09 06:00      0.00    460.11    530653    413.47     26037     33600     75.87     19.30      1.19    100.16      0.00     13.41     13.12
08/09 07:00      0.00    460.11    530653    413.60     27229     33600     75.65     20.40      1.13    100.04      3.00     13.41     13.12
08/09 08:00      0.00    460.07    528848    413.58     29432     34100     77.50     28.80      1.30    100.09     66.00     13.40     13.12
08/09 09:00      0.00    460.08    529300    413.59     30624     34100     81.48     15.90      1.19    100.16    278.00     13.39     13.12
08/09 10:00      0.00    460.08    529300    413.60     31816     34100     86.52     78.80      1.11     93.98    535.00     13.38     13.12
08/09 11:00      0.00    460.08    529300    413.61     33008     34100     88.48     99.90      1.82     85.49    630.00     13.39     13.12
08/09 12:00      0.00    460.09    529751    413.67     28640     34100     89.82    161.90      3.18     73.22    862.00     13.38     13.12
08/09 13:00      0.00    460.06    528397    413.59     25365     34100     92.89    174.70      5.27     61.80    960.00     13.39     13.12
08/09 14:00      0.00    460.03    527044    413.59     25365     34100     93.76    182.30      8.25     56.84    998.00     13.39     13.12
08/09 15:00      0.00    460.00    525690    413.62     27629     34100     94.86    175.50      5.16     52.02    799.00     13.39     13.12
08/09 16:00      0.00    460.00    525690    413.57     31996     34500     95.95    175.70      5.24     47.14    911.00     13.39     13.12
08/09 17:00      0.00    460.03    527044    413.55     35172     34100     96.48    150.00      2.23     45.54    730.00     13.41     13.12
08/09 18:00      0.00    460.04    527495    413.55     38348     33600     96.15    162.30      2.28     46.46    488.00     13.40     13.12
08/09 19:00      0.00    460.04    527495    413.52     38248     33600     94.96    159.50      2.88     48.66    315.00     13.39     13.12
08/09 20:00      0.00    460.04    527495    413.51     36976     33600     92.64    156.00      3.20     53.60    110.00     13.40     13.12
08/09 21:00      0.00    460.04    527495    413.50     35784     33600     89.35    147.70      1.14     59.22      3.00     13.39     13.12
08/09 22:00      0.00    460.06    528397    413.49     40151     33600     88.25    157.20      2.23     62.28      0.00     13.39     13.12
08/09 23:00      ----      ----      ----      ----      ----      ----      ----      ----      ----      ----      ----      ----      ----